createdAt,value
2018-11-01T00:00:55.275Z,97557.29
2018-11-01T00:02:01.079Z,97562.59
2018-11-01T00:03:09.805Z,97560.05
2018-11-01T00:04:21.040Z,97559.10
2018-11-01T00:05:27.123Z,97550.66
2018-11-01T00:06:33.001Z,97551.17
2018-11-01T00:07:42.489Z,97548.02
2018-11-01T00:08:46.965Z,97546.25
2018-11-01T00:09:51.902Z,97555.22
2018-11-01T00:10:56.605Z,97556.90
2018-11-01T00:12:04.179Z,97554.52
2018-11-01T00:13:15.556Z,97553.67
2018-11-01T00:14:20.283Z,97558.76
2018-11-01T00:15:25.884Z,97557.09
2018-11-01T00:16:30.601Z,97555.52
2018-11-01T00:17:36.965Z,97550.97
2018-11-01T00:18:42.234Z,97543.84
2018-11-01T00:19:49.644Z,97546.49
2018-11-01T00:20:54.197Z,97540.63
2018-11-01T00:22:00.160Z,97538.31
2018-11-01T00:23:04.699Z,97534.50
2018-11-01T00:24:09.299Z,97542.76
2018-11-01T00:25:14.817Z,97533.57
2018-11-01T00:26:19.596Z,97533.92
2018-11-01T00:27:24.750Z,97520.82
2018-11-01T00:28:29.307Z,97526.18
2018-11-01T00:29:34.553Z,97521.26
2018-11-01T00:30:39.312Z,97520.96
2018-11-01T00:31:44.883Z,97521.61
2018-11-01T00:32:50.027Z,97521.39
2018-11-01T00:33:54.892Z,97523.73
2018-11-01T00:34:59.403Z,97513.05
2018-11-01T00:36:05.321Z,97514.88
2018-11-01T00:37:09.783Z,97527.86
2018-11-01T00:38:15.453Z,97524.77
2018-11-01T00:39:21.285Z,97517.55
2018-11-01T00:40:25.918Z,97516.08
2018-11-01T00:41:30.712Z,97519.96
2018-11-01T00:42:35.325Z,97522.97
2018-11-01T00:43:39.832Z,97527.14
2018-11-01T00:44:45.852Z,97534.78
2018-11-01T00:45:52.942Z,97536.20
2018-11-01T00:46:58.650Z,97529.16
2018-11-01T00:48:03.170Z,97533.77
2018-11-01T00:49:09.282Z,97531.41
2018-11-01T00:50:14.945Z,97531.12
2018-11-01T00:51:19.504Z,97526.41
2018-11-01T00:52:24.427Z,97530.55
2018-11-01T00:53:29.793Z,97532.47
2018-11-01T00:54:35.696Z,97531.80
2018-11-01T00:55:40.678Z,97531.19
2018-11-01T00:56:45.182Z,97531.76
2018-11-01T00:57:49.716Z,97532.46
2018-11-01T00:58:54.529Z,97536.57
2018-11-01T00:59:59.558Z,97536.14
2018-11-01T01:01:04.102Z,97536.57
2018-11-01T01:02:09.361Z,97535.77
2018-11-01T01:03:13.963Z,97538.76
2018-11-01T01:04:19.523Z,97537.02
2018-11-01T01:05:24.808Z,97542.37
2018-11-01T01:06:29.385Z,97544.48
2018-11-01T01:07:33.901Z,97546.55
2018-11-01T01:08:38.457Z,97544.42
2018-11-01T01:09:42.968Z,97543.61
2018-11-01T01:10:48.498Z,97541.05
2018-11-01T01:11:53.383Z,97539.00
2018-11-01T01:12:58.119Z,97537.89
2018-11-01T01:14:02.625Z,97539.63
2018-11-01T01:15:07.936Z,97540.55
2018-11-01T01:16:15.066Z,97543.98
2018-11-01T01:17:21.837Z,97548.53
2018-11-01T01:18:29.833Z,97546.04
2018-11-01T01:19:36.855Z,97541.80
2018-11-01T01:20:41.371Z,97539.81
2018-11-01T01:21:47.347Z,97540.22
2018-11-01T01:22:52.788Z,97536.58
2018-11-01T01:23:59.032Z,97534.42
2018-11-01T01:25:03.550Z,97534.16
2018-11-01T01:26:08.315Z,97530.69
2018-11-01T01:27:12.840Z,97528.56
2018-11-01T01:28:17.442Z,97534.86
2018-11-01T01:29:23.849Z,97538.87
2018-11-01T01:30:37.770Z,97538.32
2018-11-01T01:32:00.547Z,97538.25
2018-11-01T01:33:06.382Z,97530.84
2018-11-01T01:34:11.011Z,97529.97
2018-11-01T01:35:15.842Z,97524.08
2018-11-01T01:36:20.339Z,97521.06
2018-11-01T01:37:25.752Z,97527.42
2018-11-01T01:38:33.318Z,97531.28
2018-11-01T01:39:38.046Z,97527.72
2018-11-01T01:40:42.498Z,97531.13
2018-11-01T01:41:46.951Z,97531.56
2018-11-01T01:42:54.345Z,97528.86
2018-11-01T01:43:59.211Z,97534.57
2018-11-01T01:45:04.300Z,97533.83
2018-11-01T01:46:10.355Z,97526.98
2018-11-01T01:47:14.832Z,97525.04
2018-11-01T01:48:19.339Z,97521.24
2018-11-01T01:49:23.913Z,97520.47
2018-11-01T01:50:30.053Z,97518.05
2018-11-01T01:51:35.411Z,97516.50
2018-11-01T01:52:41.147Z,97516.06
2018-11-01T01:53:45.943Z,97508.31
2018-11-01T01:54:50.429Z,97509.59
2018-11-01T01:55:55.090Z,97507.98
2018-11-01T01:57:00.160Z,97507.40
2018-11-01T01:58:05.601Z,97504.18
2018-11-01T01:59:10.357Z,97504.38
2018-11-01T02:00:17.360Z,97506.73
2018-11-01T02:01:22.953Z,97506.05
2018-11-01T02:02:29.181Z,97512.84
2018-11-01T02:03:35.101Z,97513.53
2018-11-01T02:04:39.698Z,97515.34
2018-11-01T02:05:52.596Z,97518.67
2018-11-01T02:06:57.114Z,97517.74
2018-11-01T02:08:01.562Z,97516.06
2018-11-01T02:09:11.464Z,97515.19
2018-11-01T02:10:17.959Z,97507.16
2018-11-01T02:11:24.051Z,97504.97
2018-11-01T02:12:28.594Z,97504.31
2018-11-01T02:14:54.684Z,97502.86
2018-11-01T02:15:59.747Z,97497.41
2018-11-01T02:17:04.778Z,97497.00
2018-11-01T02:18:09.960Z,97500.56
2018-11-01T02:19:14.444Z,97497.64
2018-11-01T02:20:22.065Z,97498.19
2018-11-01T02:21:28.026Z,97496.45
2018-11-01T02:22:33.988Z,97499.07
2018-11-01T02:23:40.509Z,97495.83
2018-11-01T02:24:46.991Z,97499.44
2018-11-01T02:25:51.524Z,97489.23
2018-11-01T02:26:56.010Z,97493.03
2018-11-01T02:28:08.513Z,97497.57
2018-11-01T02:29:21.385Z,97487.49
2018-11-01T02:30:27.674Z,97489.11
2018-11-01T02:31:32.456Z,97487.36
2018-11-01T02:32:37.718Z,97492.28
2018-11-01T02:33:42.934Z,97485.05
2018-11-01T02:34:49.294Z,97476.27
2018-11-01T02:35:54.604Z,97476.41
2018-11-01T02:36:59.174Z,97474.41
2018-11-01T02:38:06.908Z,97473.17
2018-11-01T02:39:13.637Z,97469.06
2018-11-01T02:40:18.625Z,97463.83
2018-11-01T02:41:24.331Z,97471.37
2018-11-01T02:42:28.890Z,97468.59
2018-11-01T02:43:33.486Z,97462.31
2018-11-01T02:44:38.093Z,97463.09
2018-11-01T02:45:43.026Z,97465.95
2018-11-01T02:46:48.047Z,97464.70
2018-11-01T02:47:53.577Z,97465.30
2018-11-01T02:48:59.820Z,97463.75
2018-11-01T02:50:06.542Z,97465.05
2018-11-01T02:51:11.552Z,97467.30
2018-11-01T02:52:17.633Z,97464.27
2018-11-01T02:53:22.520Z,97460.53
2018-11-01T02:54:27.516Z,97466.77
2018-11-01T02:55:33.733Z,97460.41
2018-11-01T02:56:40.702Z,97461.59
2018-11-01T02:57:45.861Z,97456.98
2018-11-01T02:58:50.532Z,97457.36
2018-11-01T02:59:56.293Z,97455.16
2018-11-01T03:01:01.758Z,97449.37
2018-11-01T03:02:06.795Z,97447.25
2018-11-01T03:03:11.347Z,97447.56
2018-11-01T03:04:16.023Z,97449.98
2018-11-01T03:05:20.638Z,97452.98
2018-11-01T03:06:25.528Z,97453.98
2018-11-01T03:07:30.118Z,97446.57
2018-11-01T03:08:34.712Z,97442.77
2018-11-01T03:09:40.878Z,97441.03
2018-11-01T03:10:45.439Z,97435.98
2018-11-01T03:11:49.941Z,97432.56
2018-11-01T03:12:54.817Z,97434.45
2018-11-01T03:14:00.717Z,97435.50
2018-11-01T03:15:05.566Z,97440.92
2018-11-01T03:16:40.589Z,97434.45
2018-11-01T03:17:46.075Z,97444.88
2018-11-01T03:18:50.955Z,97446.63
2018-11-01T03:19:57.669Z,97450.36
2018-11-01T03:21:02.199Z,97451.42
2018-11-01T03:22:07.343Z,97450.52
2018-11-01T03:23:12.813Z,97452.02
2018-11-01T03:24:17.328Z,97447.81
2018-11-01T03:25:21.880Z,97449.18
2018-11-01T03:26:27.849Z,97445.66
2018-11-01T03:27:32.445Z,97448.70
2018-11-01T03:28:36.961Z,97449.56
2018-11-01T03:29:41.495Z,97450.88
2018-11-01T03:30:46.032Z,97449.51
2018-11-01T03:31:54.070Z,97450.75
2018-11-01T03:32:58.871Z,97444.28
2018-11-01T03:34:03.691Z,97444.39
2018-11-01T03:35:09.494Z,97449.87
2018-11-01T03:36:14.355Z,97450.37
2018-11-01T03:37:18.868Z,97453.80
2018-11-01T03:38:23.998Z,97456.05
2018-11-01T03:39:28.837Z,97459.84
2018-11-01T03:40:33.465Z,97447.83
2018-11-01T03:41:37.963Z,97447.71
2018-11-01T03:42:42.951Z,97446.03
2018-11-01T03:43:47.509Z,97442.04
2018-11-01T03:44:52.010Z,97446.71
2018-11-01T03:45:56.852Z,97446.95
2018-11-01T03:47:01.571Z,97450.30
2018-11-01T03:48:06.370Z,97435.94
2018-11-01T03:49:11.678Z,97440.42
2018-11-01T03:50:16.533Z,97430.76
2018-11-01T03:51:21.059Z,97431.63
2018-11-01T03:52:27.769Z,97429.31
2018-11-01T03:53:33.745Z,97425.69
2018-11-01T03:54:38.348Z,97422.58
2018-11-01T03:55:43.537Z,97423.90
2018-11-01T03:56:48.272Z,97417.97
2018-11-01T03:57:52.918Z,97416.52
2018-11-01T03:58:57.554Z,97418.44
2018-11-01T04:00:02.445Z,97413.83
2018-11-01T04:01:06.999Z,97411.70
2018-11-01T04:02:11.531Z,97410.99
2018-11-01T04:03:17.013Z,97418.83
2018-11-01T04:04:21.834Z,97418.16
2018-11-01T04:05:26.521Z,97420.53
2018-11-01T04:06:41.443Z,97424.77
2018-11-01T04:07:46.067Z,97419.41
2018-11-01T04:08:51.869Z,97412.76
2018-11-01T04:09:57.442Z,97416.92
2018-11-01T04:11:04.045Z,97410.42
2018-11-01T04:12:09.348Z,97412.77
2018-11-01T04:13:13.914Z,97407.64
2018-11-01T04:14:18.408Z,97405.30
2018-11-01T04:15:23.071Z,97403.02
2018-11-01T04:16:27.632Z,97395.53
2018-11-01T04:17:32.493Z,97386.58
2018-11-01T04:18:37.163Z,97388.48
2018-11-01T04:19:41.772Z,97387.82
2018-11-01T04:20:46.978Z,97383.81
2018-11-01T04:22:00.370Z,97387.32
2018-11-01T04:23:05.760Z,97383.28
2018-11-01T04:24:10.694Z,97382.77
2018-11-01T04:25:17.139Z,97374.59
2018-11-01T04:26:22.407Z,97379.05
2018-11-01T04:27:27.070Z,97369.92
2018-11-01T04:28:31.819Z,97375.38
2018-11-01T04:29:37.161Z,97378.88
2018-11-01T04:30:42.393Z,97382.79
2018-11-01T04:31:46.953Z,97383.06
2018-11-01T04:32:52.587Z,97381.64
2018-11-01T04:33:57.101Z,97389.35
2018-11-01T04:35:01.720Z,97392.75
2018-11-01T04:36:06.310Z,97399.38
2018-11-01T04:37:11.104Z,97401.81
2018-11-01T04:38:15.683Z,97398.23
2018-11-01T04:39:27.206Z,97402.08
2018-11-01T04:40:31.821Z,97405.61
2018-11-01T04:41:36.352Z,97406.12
2018-11-01T04:42:41.286Z,97402.20
2018-11-01T04:43:46.073Z,97399.64
2018-11-01T04:44:50.609Z,97407.11
2018-11-01T04:45:55.135Z,97414.95
2018-11-01T04:46:59.664Z,97417.75
2018-11-01T04:48:04.249Z,97419.06
2018-11-01T04:49:08.824Z,97424.61
2018-11-01T04:50:14.736Z,97423.86
2018-11-01T04:51:20.106Z,97418.56
2018-11-01T04:52:24.615Z,97420.31
2018-11-01T04:53:29.878Z,97411.03
2018-11-01T04:54:34.503Z,97401.33
2018-11-01T04:55:39.038Z,97393.91
2018-11-01T04:56:43.984Z,97393.91
2018-11-01T04:57:48.491Z,97390.48
2018-11-01T04:58:53.603Z,97385.81
2018-11-01T04:59:59.946Z,97381.70
2018-11-01T05:01:04.487Z,97378.10
2018-11-01T05:02:08.983Z,97374.19
2018-11-01T05:03:13.950Z,97370.59
2018-11-01T05:04:18.421Z,97369.75
2018-11-01T05:05:24.076Z,97362.98
2018-11-01T05:06:28.598Z,97361.36
2018-11-01T05:07:33.920Z,97361.63
2018-11-01T05:08:38.562Z,97366.92
2018-11-01T05:09:43.443Z,97373.44
2018-11-01T05:10:47.934Z,97375.06
2018-11-01T05:11:52.451Z,97378.33
2018-11-01T05:12:57.233Z,97372.42
2018-11-01T05:14:01.783Z,97364.40
2018-11-01T05:15:07.993Z,97368.94
2018-11-01T05:16:12.981Z,97368.75
2018-11-01T05:17:18.041Z,97364.71
2018-11-01T05:18:22.537Z,97369.19
2018-11-01T05:19:28.301Z,97363.34
2018-11-01T05:20:34.216Z,97367.94
2018-11-01T05:21:38.734Z,97362.72
2018-11-01T05:22:43.755Z,97365.27
2018-11-01T05:23:48.241Z,97361.70
2018-11-01T05:24:52.738Z,97364.67
2018-11-01T05:26:00.048Z,97368.03
2018-11-01T05:27:05.378Z,97361.81
2018-11-01T05:28:11.201Z,97365.48
2018-11-01T05:29:16.977Z,97364.18
2018-11-01T05:30:21.521Z,97361.75
2018-11-01T05:31:26.035Z,97368.25
2018-11-01T05:32:30.592Z,97372.30
2018-11-01T05:33:39.757Z,97371.67
2018-11-01T05:34:45.142Z,97378.02
2018-11-01T05:35:50.493Z,97371.02
2018-11-01T05:36:55.043Z,97375.55
2018-11-01T05:38:00.306Z,97379.72
2018-11-01T05:39:06.324Z,97381.95
2018-11-01T05:40:11.632Z,97381.45
2018-11-01T05:41:16.125Z,97386.67
2018-11-01T05:42:22.009Z,97390.96
2018-11-01T05:43:28.082Z,97394.33
2018-11-01T05:44:33.630Z,97396.04
2018-11-01T05:45:41.409Z,97396.79
2018-11-01T05:46:45.923Z,97400.89
2018-11-01T05:47:50.370Z,97400.41
2018-11-01T05:48:56.135Z,97397.22
2018-11-01T05:50:00.623Z,97395.92
2018-11-01T05:51:05.882Z,97391.59
2018-11-01T05:52:11.885Z,97391.01
2018-11-01T05:53:16.376Z,97381.14
2018-11-01T05:54:21.010Z,97393.02
2018-11-01T05:55:25.837Z,97389.85
2018-11-01T05:56:33.773Z,97392.02
2018-11-01T05:57:40.437Z,97397.98
2018-11-01T05:58:44.937Z,97395.25
2018-11-01T05:59:50.471Z,97402.77
2018-11-01T06:00:54.972Z,97407.39
2018-11-01T06:02:02.042Z,97407.77
2018-11-01T06:03:06.516Z,97411.90
2018-11-01T06:04:11.005Z,97409.41
2018-11-01T06:05:19.323Z,97408.98
2018-11-01T06:06:26.801Z,97402.84
2018-11-01T06:07:36.514Z,97400.42
2018-11-01T06:08:43.382Z,97402.84
2018-11-01T06:09:47.911Z,97390.80
2018-11-01T06:10:52.479Z,97394.50
2018-11-01T06:11:57.638Z,97386.98
2018-11-01T06:13:02.217Z,97391.45
2018-11-01T06:14:06.981Z,97390.16
2018-11-01T06:15:11.872Z,97386.05
2018-11-01T06:16:16.377Z,97385.18
2018-11-01T06:17:20.896Z,97384.74
2018-11-01T06:18:26.630Z,97386.80
2018-11-01T06:19:31.148Z,97387.66
2018-11-01T06:20:35.921Z,97387.73
2018-11-01T06:21:41.051Z,97384.55
2018-11-01T06:22:45.518Z,97390.11
2018-11-01T06:23:50.968Z,97384.20
2018-11-01T06:24:55.488Z,97382.88
2018-11-01T06:26:00.302Z,97380.33
2018-11-01T06:27:05.132Z,97383.56
2018-11-01T06:28:09.652Z,97378.16
2018-11-01T06:29:16.207Z,97369.45
2018-11-01T06:30:20.770Z,97368.77
2018-11-01T06:31:26.232Z,97374.48
2018-11-01T06:45:20.886Z,97383.52
2018-11-01T06:46:29.575Z,97394.27
2018-11-01T06:47:34.072Z,97393.66
2018-11-01T06:48:40.177Z,97394.20
2018-11-01T06:49:44.682Z,97387.05
2018-11-01T06:50:49.493Z,97394.91
2018-11-01T06:51:54.075Z,97396.70
2018-11-01T06:52:58.608Z,97398.95
2018-11-01T06:54:03.130Z,97410.77
2018-11-01T06:55:08.226Z,97411.52
2018-11-01T06:56:12.738Z,97408.29
2018-11-01T06:57:17.606Z,97417.73
2018-11-01T06:58:22.264Z,97420.17
2018-11-01T06:59:27.830Z,97418.57
2018-11-01T07:00:32.382Z,97416.19
2018-11-01T07:01:38.248Z,97418.56
2018-11-01T07:02:43.113Z,97419.92
2018-11-01T07:03:48.234Z,97423.59
2018-11-01T07:04:54.269Z,97426.36
2018-11-01T07:06:00.295Z,97424.47
2018-11-01T07:07:06.228Z,97428.19
2018-11-01T07:08:11.414Z,97421.66
2018-11-01T07:09:15.914Z,97428.80
2018-11-01T07:10:20.674Z,97422.15
2018-11-01T07:11:25.220Z,97428.80
2018-11-01T07:12:29.703Z,97422.41
2018-11-01T07:13:34.204Z,97431.09
2018-11-01T07:14:38.725Z,97432.02
2018-11-01T07:15:43.274Z,97439.69
2018-11-01T07:16:48.125Z,97446.28
2018-11-01T07:17:54.681Z,97440.94
2018-11-01T07:19:00.335Z,97445.19
2018-11-01T07:20:06.035Z,97441.27
2018-11-01T07:21:13.147Z,97445.37
2018-11-01T07:22:19.097Z,97442.28
2018-11-01T07:23:25.705Z,97448.27
2018-11-01T07:24:30.674Z,97450.52
2018-11-01T07:25:38.139Z,97448.03
2018-11-01T07:26:43.176Z,97448.91
2018-11-01T07:27:48.615Z,97439.13
2018-11-01T07:28:54.631Z,97434.91
2018-11-01T07:30:02.092Z,97430.05
2018-11-01T07:31:06.603Z,97430.92
2018-11-01T07:32:13.646Z,97436.03
2018-11-01T07:33:18.181Z,97438.83
2018-11-01T07:34:22.754Z,97446.98
2018-11-01T07:35:27.263Z,97444.44
2018-11-01T07:36:32.052Z,97440.22
2018-11-01T07:37:46.410Z,97444.99
2018-11-01T07:38:51.720Z,97437.04
2018-11-01T07:39:56.305Z,97436.42
2018-11-01T07:41:01.460Z,97437.41
2018-11-01T07:42:06.206Z,97427.03
2018-11-01T07:43:11.003Z,97427.58
2018-11-01T07:44:15.506Z,97427.64
2018-11-01T07:45:21.258Z,97429.52
2018-11-01T07:46:25.784Z,97425.10
2018-11-01T07:47:30.852Z,97420.94
2018-11-01T07:48:35.474Z,97423.33
2018-11-01T07:49:40.066Z,97420.28
2018-11-01T07:50:44.584Z,97416.87
2018-11-01T07:51:49.201Z,97413.26
2018-11-01T07:52:54.761Z,97406.41
2018-11-01T07:54:00.118Z,97400.34
2018-11-01T07:55:05.966Z,97394.81
2018-11-01T07:56:11.381Z,97389.62
2018-11-01T07:57:15.886Z,97389.37
2018-11-01T07:58:21.712Z,97386.19
2018-11-01T07:59:26.291Z,97377.91
2018-11-01T08:00:31.455Z,97384.08
2018-11-01T08:01:40.715Z,97371.63
2018-11-01T08:02:47.330Z,97371.63
2018-11-01T08:03:54.240Z,97364.66
2018-11-01T08:04:59.593Z,97358.88
2018-11-01T08:06:04.271Z,97356.02
2018-11-01T08:07:09.358Z,97355.58
2018-11-01T08:08:14.178Z,97349.36
2018-11-01T08:09:21.781Z,97352.16
2018-11-01T08:10:26.951Z,97357.56
2018-11-01T08:11:31.470Z,97353.40
2018-11-01T08:12:36.203Z,97358.06
2018-11-01T08:13:40.763Z,97358.00
2018-11-01T08:14:45.540Z,97356.83
2018-11-01T08:15:51.014Z,97351.41
2018-11-01T08:16:55.653Z,97347.69
2018-11-01T08:18:03.015Z,97350.29
2018-11-01T08:19:07.562Z,97342.32
2018-11-01T08:20:14.866Z,97343.56
2018-11-01T08:21:21.016Z,97337.21
2018-11-01T08:22:30.165Z,97332.00
2018-11-01T08:23:35.742Z,97333.61
2018-11-01T08:24:46.578Z,97327.39
2018-11-01T08:25:51.689Z,97323.52
2018-11-01T08:26:57.819Z,97323.66
2018-11-01T08:28:02.418Z,97324.09
2018-11-01T08:29:07.927Z,97326.95
2018-11-01T08:30:15.627Z,97326.14
2018-11-01T08:31:20.202Z,97330.75
2018-11-01T08:32:25.581Z,97325.00
2018-11-01T08:33:32.966Z,97321.91
2018-11-01T08:34:38.326Z,97327.55
2018-11-01T08:35:43.800Z,97327.72
2018-11-01T08:36:50.428Z,97334.56
2018-11-01T08:37:57.254Z,97341.02
2018-11-01T08:39:03.668Z,97344.72
2018-11-01T08:40:08.558Z,97347.14
2018-11-01T08:41:14.426Z,97346.06
2018-11-01T08:42:19.357Z,97348.42
2018-11-01T08:43:27.398Z,97347.34
2018-11-01T08:44:32.094Z,97346.77
2018-11-01T08:45:37.966Z,97343.60
2018-11-01T08:46:51.783Z,97337.49
2018-11-01T08:47:56.629Z,97334.86
2018-11-01T08:49:04.603Z,97329.88
2018-11-01T08:50:10.017Z,97323.14
2018-11-01T08:51:14.634Z,97323.52
2018-11-01T08:52:19.818Z,97317.28
2018-11-01T08:53:25.240Z,97315.45
2018-11-01T08:54:29.938Z,97316.27
2018-11-01T08:55:36.321Z,97314.58
2018-11-01T08:56:41.653Z,97311.28
2018-11-01T08:57:46.787Z,97314.28
2018-11-01T08:58:51.765Z,97310.17
2018-11-01T08:59:56.523Z,97303.06
2018-11-01T09:01:01.880Z,97300.36
2018-11-01T09:02:09.121Z,97293.33
2018-11-01T09:03:13.783Z,97291.64
2018-11-01T09:04:18.486Z,97296.05
2018-11-01T09:05:24.450Z,97292.53
2018-11-01T09:06:32.129Z,97291.09
2018-11-01T09:07:38.635Z,97289.27
2018-11-01T09:08:44.536Z,97288.39
2018-11-01T09:09:52.116Z,97287.37
2018-11-01T09:10:57.436Z,97294.84
2018-11-01T09:12:02.299Z,97288.10
2018-11-01T09:13:06.856Z,97291.70
2018-11-01T09:14:11.871Z,97292.88
2018-11-01T09:15:18.072Z,97298.59
2018-11-01T09:16:22.640Z,97296.91
2018-11-01T09:17:28.016Z,97300.13
2018-11-01T09:18:33.679Z,97301.27
2018-11-01T09:19:38.931Z,97303.76
2018-11-01T09:20:43.626Z,97305.22
2018-11-01T09:21:50.798Z,97308.45
2018-11-01T09:22:55.527Z,97312.48
2018-11-01T09:24:00.512Z,97314.69
2018-11-01T09:25:06.844Z,97314.76
2018-11-01T09:26:12.534Z,97321.14
2018-11-01T09:27:17.547Z,97323.45
2018-11-01T09:28:22.388Z,97326.53
2018-11-01T09:29:32.331Z,97324.11
2018-11-01T09:30:39.444Z,97324.98
2018-11-01T09:31:44.105Z,97334.96
2018-11-01T09:32:49.753Z,97337.09
2018-11-01T09:33:54.625Z,97334.30
2018-11-01T09:34:59.523Z,97338.47
2018-11-01T09:36:04.566Z,97335.40
2018-11-01T09:37:19.532Z,97335.70
2018-11-01T09:38:26.429Z,97332.87
2018-11-01T09:39:32.264Z,97330.16
2018-11-01T09:40:38.159Z,97330.39
2018-11-01T09:41:44.710Z,97333.17
2018-11-01T09:42:50.455Z,97327.59
2018-11-01T09:43:57.232Z,97335.30
2018-11-01T09:45:02.710Z,97337.43
2018-11-01T09:46:09.350Z,97342.70
2018-11-01T09:47:14.982Z,97340.36
2018-11-01T09:48:21.841Z,97341.76
2018-11-01T09:49:27.653Z,97344.84
2018-11-01T09:50:33.077Z,97349.09
2018-11-01T09:51:37.664Z,97346.08
2018-11-01T09:52:42.530Z,97348.20
2018-11-01T09:53:48.347Z,97348.95
2018-11-01T09:54:56.371Z,97355.03
2018-11-01T09:56:04.729Z,97351.44
2018-11-01T09:57:18.061Z,97352.91
2018-11-01T09:58:23.321Z,97351.08
2018-11-01T09:59:27.896Z,97355.33
2018-11-01T10:00:32.965Z,97356.58
2018-11-01T10:01:39.182Z,97358.52
2018-11-01T10:02:47.547Z,97359.58
2018-11-01T10:03:52.710Z,97362.74
2018-11-01T10:04:58.043Z,97363.91
2018-11-01T10:06:04.914Z,97360.89
2018-11-01T10:07:10.269Z,97361.45
2018-11-01T10:08:16.385Z,97361.94
2018-11-01T10:09:23.320Z,97359.44
2018-11-01T10:10:28.522Z,97360.53
2018-11-01T10:11:34.308Z,97357.96
2018-11-01T10:12:41.722Z,97354.52
2018-11-01T10:13:49.631Z,97358.19
2018-11-01T10:14:57.338Z,97358.98
2018-11-01T10:16:03.461Z,97359.88
2018-11-01T10:17:09.107Z,97358.92
2018-11-01T10:18:13.987Z,97357.31
2018-11-01T10:19:21.348Z,97352.75
2018-11-01T10:20:32.611Z,97360.23
2018-11-01T10:21:44.322Z,97364.08
2018-11-01T10:22:50.695Z,97367.14
2018-11-01T10:23:57.399Z,97366.48
2018-11-01T10:25:02.832Z,97364.57
2018-11-01T10:26:08.475Z,97362.08
2018-11-01T10:27:19.517Z,97358.77
2018-11-01T10:28:21.267Z,97361.22
2018-11-01T10:29:28.462Z,97351.73
2018-11-01T10:30:34.834Z,97355.14
2018-11-01T10:31:45.189Z,97362.40
2018-11-01T10:32:52.826Z,97351.81
2018-11-01T10:33:57.796Z,97358.58
2018-11-01T10:35:06.151Z,97345.73
2018-11-01T10:36:15.933Z,97351.22
2018-11-01T10:37:20.906Z,97349.23
2018-11-01T10:38:26.465Z,97346.38
2018-11-01T10:39:31.543Z,97351.14
2018-11-01T10:40:36.225Z,97349.37
2018-11-01T10:41:41.109Z,97337.53
2018-11-01T10:42:49.141Z,97336.13
2018-11-01T10:43:53.719Z,97336.77
2018-11-01T10:44:58.866Z,97337.45
2018-11-01T10:46:04.080Z,97342.97
2018-11-01T10:47:10.756Z,97346.51
2018-11-01T10:48:15.357Z,97343.20
2018-11-01T10:49:21.001Z,97349.05
2018-11-01T10:50:26.502Z,97352.57
2018-11-01T10:51:31.490Z,97350.07
2018-11-01T10:52:39.782Z,97348.37
2018-11-01T10:53:49.372Z,97340.31
2018-11-01T10:54:55.660Z,97337.95
2018-11-01T10:56:00.229Z,97324.05
2018-11-01T10:57:05.508Z,97327.06
2018-11-01T10:58:10.343Z,97332.30
2018-11-01T10:59:15.924Z,97337.84
2018-11-01T11:00:26.798Z,97337.04
2018-11-01T11:01:33.361Z,97342.53
2018-11-01T11:02:42.123Z,97338.39
2018-11-01T11:03:47.726Z,97338.98
2018-11-01T11:04:56.210Z,97338.83
2018-11-01T11:06:04.065Z,97331.91
2018-11-01T11:07:12.858Z,97322.63
2018-11-01T11:08:20.429Z,97332.39
2018-11-01T11:44:33.484Z,97348.39
2018-11-01T11:45:38.076Z,97341.53
2018-11-01T11:46:43.742Z,97334.76
2018-11-01T11:47:49.286Z,97332.69
2018-11-01T11:48:55.023Z,97328.61
2018-11-01T11:50:01.014Z,97330.06
2018-11-01T11:51:09.399Z,97321.42
2018-11-01T11:52:17.170Z,97317.28
2018-11-01T11:53:25.346Z,97319.45
2018-11-01T11:54:30.206Z,97317.95
2018-11-01T11:55:34.787Z,97315.72
2018-11-01T11:56:40.583Z,97318.37
2018-11-01T11:57:46.322Z,97320.27
2018-11-01T11:58:51.190Z,97313.84
2018-11-01T11:59:58.929Z,97304.19
2018-11-01T12:01:03.889Z,97311.44
2018-11-01T12:02:09.554Z,97303.84
2018-11-01T12:03:16.478Z,97309.21
2018-11-01T12:04:21.372Z,97306.27
2018-11-01T12:05:26.825Z,97304.56
2018-11-01T12:06:32.422Z,97306.92
2018-11-01T12:07:40.370Z,97305.95
2018-11-01T12:09:03.499Z,97304.08
2018-11-01T12:10:09.958Z,97305.59
2018-11-01T12:11:16.748Z,97308.46
2018-11-01T12:12:23.058Z,97307.12
2018-11-01T12:58:32.926Z,97284.64
2018-11-01T12:59:37.443Z,97279.99
2018-11-01T13:00:43.081Z,97279.01
2018-11-01T13:01:48.504Z,97279.81
2018-11-01T13:02:53.160Z,97275.16
2018-11-01T13:03:59.988Z,97276.95
2018-11-01T13:05:05.873Z,97279.36
2018-11-01T13:06:11.406Z,97272.66
2018-11-01T13:07:18.737Z,97274.27
2018-11-01T13:08:25.259Z,97274.72
2018-11-01T13:09:30.867Z,97270.15
2018-11-01T13:10:35.660Z,97277.58
2018-11-01T13:11:42.697Z,97287.15
2018-11-01T13:14:00.108Z,97303.52
2018-11-01T13:15:05.504Z,97299.48
2018-11-01T13:16:14.032Z,97304.50
2018-11-01T13:17:19.397Z,97307.00
2018-11-01T13:18:25.137Z,97306.20
2018-11-01T13:19:29.674Z,97306.28
2018-11-01T13:20:35.145Z,97306.28
2018-11-01T13:21:39.841Z,97303.78
2018-11-01T13:22:46.671Z,97308.25
2018-11-01T13:23:51.955Z,97303.06
2018-11-01T13:24:57.188Z,97306.31
2018-11-01T13:26:03.389Z,97299.97
2018-11-01T13:27:12.397Z,97299.38
2018-11-01T13:28:24.253Z,97299.73
2018-11-01T13:29:29.128Z,97299.64
2018-11-01T13:30:35.601Z,97301.61
2018-11-01T13:31:42.494Z,97300.27
2018-11-01T13:32:48.638Z,97303.84
2018-11-01T13:33:54.124Z,97305.45
2018-11-01T13:34:59.503Z,97297.49
2018-11-01T13:36:04.959Z,97300.00
2018-11-01T13:37:10.895Z,97298.84
2018-11-01T13:38:16.384Z,97305.09
2018-11-01T13:39:23.541Z,97300.63
2018-11-01T13:40:29.325Z,97307.69
2018-11-01T13:41:34.101Z,97311.80
2018-11-01T13:42:39.990Z,97308.85
2018-11-01T13:43:45.941Z,97313.50
2018-11-01T13:44:51.704Z,97314.58
2018-11-01T13:45:56.321Z,97315.02
2018-11-01T13:47:01.710Z,97321.29
2018-11-01T13:48:07.444Z,97319.14
2018-11-01T13:49:14.835Z,97319.05
2018-11-01T13:50:21.411Z,97322.81
2018-11-01T13:51:26.791Z,97321.11
2018-11-01T13:52:33.078Z,97322.72
2018-11-01T13:53:39.248Z,97329.70
2018-11-01T13:54:45.322Z,97325.23
2018-11-01T13:55:53.857Z,97324.78
2018-11-01T13:57:02.124Z,97330.69
2018-11-01T13:58:08.062Z,97335.78
2018-11-01T13:59:16.197Z,97336.59
2018-11-01T14:00:21.418Z,97339.09
2018-11-01T14:01:26.889Z,97338.70
2018-11-01T14:02:36.778Z,97339.45
2018-11-01T14:03:45.581Z,97340.16
2018-11-01T14:04:50.237Z,97342.31
2018-11-01T14:05:55.649Z,97342.84
2018-11-01T14:07:00.143Z,97351.61
2018-11-01T14:08:05.041Z,97353.37
2018-11-01T14:09:09.920Z,97348.59
2018-11-01T14:10:15.553Z,97350.83
2018-11-01T14:11:20.122Z,97353.23
2018-11-01T14:12:26.109Z,97354.58
2018-11-01T14:13:30.725Z,97356.45
2018-11-01T14:14:36.997Z,97357.26
2018-11-01T14:15:42.771Z,97361.02
2018-11-01T14:16:49.980Z,97354.93
2018-11-01T14:17:54.680Z,97356.73
2018-11-01T14:19:01.350Z,97353.33
2018-11-01T14:20:07.668Z,97346.00
2018-11-01T14:21:13.605Z,97348.45
2018-11-01T14:22:19.991Z,97350.95
2018-11-01T14:23:26.542Z,97345.19
2018-11-01T14:24:33.606Z,97350.65
2018-11-01T14:25:40.696Z,97349.57
2018-11-01T14:26:46.370Z,97356.55
2018-11-01T14:27:52.366Z,97354.93
2018-11-01T14:29:00.595Z,97349.92